Centerhill, Florida
Current Conditions -  °F | °C
As of 6:53 PM on Sunday 23 Nov 2014 (Local Time) from KLEE Reporting Station
Broken Clouds Broken Clouds  
Wind Chill: 76°   Ceiling: 5500
Heat Index: 76°   Visibility: 10mi
Dew Point: 69°   Wind: 6mph
Humidity: 79%   Direction: 200°SSW
Pressure: 29.91"   Gusts: NA
Location:  28.6964°N, 82.0038°W
Report Text: KLEE 232353Z 20005KT 10SM BKN055 24/21 A2991 RMK AO2 SLP128 T02440206 10283 20239 53013 $
Loading
Personal Weather Stations






























Interactive Weather Map New forecast layout! Learn more

10-Day Weather Forecast

Advertisements
Track Severe Weather on mobile